createdAt,value
2023-04-23T00:00:14.562Z,27.29
2023-04-23T00:02:48.106Z,27.32
2023-04-23T00:05:17.625Z,27.36
2023-04-23T00:07:46.867Z,27.40
2023-04-23T00:10:15.557Z,27.45
2023-04-23T00:12:44.758Z,27.48
2023-04-23T00:15:14.688Z,27.55
2023-04-23T00:17:43.143Z,27.61
2023-04-23T00:20:11.680Z,27.67
2023-04-23T00:22:40.176Z,27.71
2023-04-23T00:25:09.041Z,27.76
2023-04-23T00:27:37.549Z,27.82
2023-04-23T00:30:06.861Z,27.88
2023-04-23T00:32:35.385Z,27.94
2023-04-23T00:35:03.824Z,27.99
2023-04-23T00:37:32.378Z,28.05
2023-04-23T00:40:00.814Z,28.10
2023-04-23T00:42:30.363Z,28.16
2023-04-23T00:44:58.966Z,28.23
2023-04-23T00:47:27.843Z,28.30
2023-04-23T00:49:57.525Z,28.35
2023-04-23T00:52:25.942Z,28.41
2023-04-23T00:54:54.320Z,28.47
2023-04-23T00:57:24.211Z,28.53
2023-04-23T00:59:53.085Z,28.56
2023-04-23T01:02:21.973Z,28.62
2023-04-23T01:04:55.936Z,28.67
2023-04-23T01:07:24.940Z,28.72
2023-04-23T01:09:53.704Z,28.78
2023-04-23T01:12:22.406Z,28.83
2023-04-23T01:14:50.976Z,28.89
2023-04-23T01:17:19.436Z,28.94
2023-04-23T01:19:47.890Z,28.98
2023-04-23T01:22:18.044Z,29.03
2023-04-23T01:24:47.261Z,29.07
2023-04-23T01:27:15.735Z,29.13
2023-04-23T01:29:44.519Z,29.20
2023-04-23T01:32:13.051Z,29.28
2023-04-23T01:34:42.710Z,29.34
2023-04-23T01:37:12.411Z,29.41
2023-04-23T01:39:40.885Z,29.48
2023-04-23T01:42:09.440Z,29.58
2023-04-23T01:44:38.269Z,29.66
2023-04-23T01:47:07.318Z,29.75
2023-04-23T01:49:35.991Z,29.81
2023-04-23T01:52:05.000Z,29.89
2023-04-23T01:54:33.433Z,29.95
2023-04-23T01:57:02.017Z,30.00
2023-04-23T01:59:30.429Z,30.06
2023-04-23T02:01:58.864Z,30.12
2023-04-23T02:04:28.516Z,30.19
2023-04-23T02:06:57.175Z,30.26
2023-04-23T02:09:25.599Z,30.33
2023-04-23T02:11:53.982Z,30.38
2023-04-23T02:14:22.658Z,30.43
2023-04-23T02:16:51.048Z,30.51
2023-04-23T02:19:19.459Z,30.55
2023-04-23T02:21:47.838Z,30.62
2023-04-23T02:24:16.264Z,30.69
2023-04-23T02:26:44.671Z,30.78
2023-04-23T02:29:13.055Z,30.86
2023-04-23T02:31:41.527Z,30.91
2023-04-23T02:34:10.321Z,30.96
2023-04-23T02:36:39.275Z,31.01
2023-04-23T02:39:08.034Z,31.06
2023-04-23T02:41:36.451Z,31.13
2023-04-23T02:44:04.872Z,31.17
2023-04-23T02:46:33.349Z,31.22
2023-04-23T02:49:01.877Z,31.28
2023-04-23T02:51:30.397Z,31.33
2023-04-23T02:53:59.149Z,31.36
2023-04-23T02:56:27.530Z,31.42
2023-04-23T02:58:55.922Z,31.49
2023-04-23T03:01:24.645Z,31.52
2023-04-23T03:03:53.382Z,31.57
2023-04-23T03:06:22.153Z,31.62
2023-04-23T03:08:50.544Z,31.68
2023-04-23T03:11:18.970Z,31.75
2023-04-23T03:13:47.381Z,31.82
2023-04-23T03:16:16.508Z,31.88
2023-04-23T03:18:45.236Z,31.94
2023-04-23T03:21:13.934Z,31.99
2023-04-23T03:23:42.388Z,32.06
2023-04-23T03:26:10.785Z,32.16
2023-04-23T03:28:39.239Z,32.22
2023-04-23T03:31:07.891Z,32.29
2023-04-23T03:33:36.629Z,32.36
2023-04-23T03:36:05.275Z,32.45
2023-04-23T03:38:33.691Z,32.53
2023-04-23T03:41:02.080Z,32.60
2023-04-23T03:43:30.924Z,32.70
2023-04-23T03:45:59.522Z,32.76
2023-04-23T03:48:28.001Z,32.82
2023-04-23T03:50:56.595Z,32.90
2023-04-23T03:53:25.020Z,32.96
2023-04-23T03:55:53.432Z,33.01
2023-04-23T03:58:21.807Z,33.10
2023-04-23T04:00:50.247Z,33.18
2023-04-23T04:03:18.822Z,33.26
2023-04-23T04:05:47.497Z,33.33
2023-04-23T04:08:17.123Z,33.42
2023-04-23T04:10:45.601Z,33.51
2023-04-23T04:13:14.110Z,33.58
2023-04-23T04:15:42.508Z,33.66
2023-04-23T04:18:10.948Z,33.74
2023-04-23T04:20:39.520Z,33.82
2023-04-23T04:23:07.985Z,33.90
2023-04-23T04:25:40.875Z,33.96
2023-04-23T04:28:10.343Z,34.01
2023-04-23T04:30:39.331Z,34.08
2023-04-23T04:33:07.776Z,34.16
2023-04-23T04:35:36.537Z,34.22
2023-04-23T04:38:04.956Z,34.28
2023-04-23T04:40:34.790Z,34.35
2023-04-23T04:43:03.203Z,34.40
2023-04-23T04:45:31.573Z,34.47
2023-04-23T04:47:59.936Z,34.56
2023-04-23T04:50:28.338Z,34.65
2023-04-23T04:52:56.843Z,34.72
2023-04-23T04:55:25.248Z,34.83
2023-04-23T04:57:53.773Z,34.92
2023-04-23T05:00:30.633Z,34.96
2023-04-23T05:03:00.340Z,35.04
2023-04-23T05:05:29.354Z,35.08
2023-04-23T05:08:00.276Z,35.14
2023-04-23T05:10:28.820Z,35.20
2023-04-23T05:13:01.658Z,35.28
2023-04-23T05:15:30.299Z,35.36
2023-04-23T05:17:58.828Z,35.41
2023-04-23T05:20:28.175Z,35.48
2023-04-23T05:22:56.582Z,35.55
2023-04-23T05:25:25.019Z,35.57
2023-04-23T05:27:53.469Z,35.57
2023-04-23T05:30:21.975Z,35.59
2023-04-23T05:32:50.812Z,35.61
2023-04-23T05:35:19.319Z,35.66
2023-04-23T05:37:50.521Z,35.71
2023-04-23T05:40:19.042Z,35.77
2023-04-23T05:42:47.398Z,35.83
2023-04-23T05:45:15.908Z,35.91
2023-04-23T05:47:44.306Z,35.95
2023-04-23T05:50:12.923Z,35.99
2023-04-23T05:52:41.663Z,36.08
2023-04-23T05:55:10.745Z,36.13
2023-04-23T05:57:40.150Z,36.17
2023-04-23T06:00:12.755Z,36.23
2023-04-23T06:02:42.342Z,36.30
2023-04-23T06:05:12.099Z,36.36
2023-04-23T06:07:41.367Z,36.42
2023-04-23T06:10:10.447Z,36.46
2023-04-23T06:12:40.246Z,36.51
2023-04-23T06:15:09.844Z,36.58
2023-04-23T06:17:38.859Z,36.61
2023-04-23T06:20:08.621Z,36.63
2023-04-23T06:22:37.131Z,36.65
2023-04-23T06:25:06.481Z,36.70
2023-04-23T06:27:35.043Z,36.75
2023-04-23T06:30:05.129Z,36.78
2023-04-23T06:32:33.527Z,36.82
2023-04-23T06:35:02.438Z,36.88
2023-04-23T06:37:34.488Z,36.92
2023-04-23T06:40:02.935Z,36.93
2023-04-23T06:42:31.758Z,36.99
2023-04-23T06:45:06.350Z,37.00
2023-04-23T06:47:35.079Z,37.03
2023-04-23T06:50:03.502Z,37.05
2023-04-23T06:52:32.051Z,37.02
2023-04-23T06:55:00.437Z,37.03
2023-04-23T06:57:29.975Z,37.05
2023-04-23T06:59:58.366Z,37.08
2023-04-23T07:02:27.282Z,37.10
2023-04-23T07:04:55.879Z,37.16
2023-04-23T07:07:24.350Z,37.20
2023-04-23T07:09:52.788Z,37.24
2023-04-23T07:12:21.351Z,37.23
2023-04-23T07:14:49.726Z,37.24
2023-04-23T07:17:18.104Z,37.23
2023-04-23T07:19:46.557Z,37.25
2023-04-23T07:22:15.401Z,37.24
2023-04-23T07:24:43.999Z,37.26
2023-04-23T07:27:12.654Z,37.30
2023-04-23T07:29:41.052Z,37.33
2023-04-23T07:32:09.567Z,37.34
2023-04-23T07:34:38.597Z,37.33
2023-04-23T07:37:07.260Z,37.32
2023-04-23T07:39:35.863Z,37.31
2023-04-23T07:42:04.528Z,37.33
2023-04-23T07:44:32.819Z,37.34
2023-04-23T07:47:01.566Z,37.30
2023-04-23T07:49:29.832Z,37.31
2023-04-23T07:51:58.208Z,37.30
2023-04-23T07:54:27.464Z,37.30
2023-04-23T07:56:55.730Z,37.29
2023-04-23T07:59:24.116Z,37.25
2023-04-23T08:01:53.560Z,37.25
2023-04-23T08:04:22.124Z,37.22
2023-04-23T08:06:50.564Z,37.19
2023-04-23T08:09:18.939Z,37.18
2023-04-23T08:11:47.241Z,37.14
2023-04-23T08:14:16.014Z,37.06
2023-04-23T08:16:44.943Z,36.95
2023-04-23T08:19:13.283Z,36.86
2023-04-23T08:21:41.850Z,36.79
2023-04-23T08:24:10.145Z,36.76
2023-04-23T08:26:38.474Z,36.71
2023-04-23T08:29:08.253Z,36.67
2023-04-23T08:31:38.321Z,36.63
2023-04-23T08:34:06.756Z,36.59
2023-04-23T08:36:35.153Z,36.56
2023-04-23T08:39:05.017Z,36.55
2023-04-23T08:41:41.734Z,36.50
2023-04-23T08:44:23.945Z,36.42
2023-04-23T08:46:54.160Z,36.29
2023-04-23T08:49:22.602Z,36.15
2023-04-23T08:51:55.378Z,36.01
2023-04-23T08:54:30.603Z,35.85
2023-04-23T08:57:00.156Z,35.71
2023-04-23T08:59:31.398Z,35.58
2023-04-23T09:02:02.020Z,35.47
2023-04-23T09:04:32.532Z,35.36
2023-04-23T09:07:01.293Z,35.25
2023-04-23T09:09:31.427Z,35.16
2023-04-23T09:12:00.164Z,35.08
2023-04-23T09:14:28.560Z,34.99
2023-04-23T09:16:57.184Z,34.90
2023-04-23T09:19:38.199Z,34.81
2023-04-23T09:22:07.046Z,34.69
2023-04-23T09:24:36.246Z,34.60
2023-04-23T09:27:05.012Z,34.54
2023-04-23T09:29:33.411Z,34.44
2023-04-23T09:32:11.048Z,34.39
2023-04-23T09:34:39.519Z,34.31
2023-04-23T09:37:12.790Z,34.25
2023-04-23T09:39:41.549Z,34.20
2023-04-23T09:42:12.230Z,34.16
2023-04-23T09:44:40.630Z,34.13
2023-04-23T09:47:10.781Z,34.12
2023-04-23T09:49:50.171Z,34.09
2023-04-23T09:52:19.486Z,34.07
2023-04-23T09:54:48.026Z,34.05
2023-04-23T09:57:17.191Z,34.08
2023-04-23T09:59:48.441Z,34.08
2023-04-23T10:02:20.819Z,34.13
2023-04-23T10:05:03.418Z,34.17
2023-04-23T10:07:39.728Z,34.22
2023-04-23T10:10:08.958Z,34.27
2023-04-23T10:12:53.517Z,34.32
2023-04-23T10:15:24.391Z,34.35
2023-04-23T10:17:53.560Z,34.38
2023-04-23T10:20:25.763Z,34.40
2023-04-23T10:22:57.396Z,34.42
2023-04-23T10:25:27.157Z,34.43
2023-04-23T10:27:59.697Z,34.45
2023-04-23T10:30:29.083Z,34.45
2023-04-23T10:33:01.205Z,34.45
2023-04-23T10:35:30.132Z,34.43
2023-04-23T10:37:58.633Z,34.39
2023-04-23T10:40:33.518Z,34.34
2023-04-23T10:43:02.475Z,34.33
2023-04-23T10:45:33.554Z,34.29
2023-04-23T10:48:02.042Z,34.24
2023-04-23T10:50:32.536Z,34.18
2023-04-23T10:53:00.963Z,34.07
2023-04-23T10:55:33.358Z,33.98
2023-04-23T10:58:06.209Z,33.88
2023-04-23T11:00:44.291Z,33.78
2023-04-23T11:03:44.576Z,33.70
2023-04-23T11:06:41.023Z,33.64
2023-04-23T11:09:31.718Z,33.57
2023-04-23T11:12:04.795Z,33.49
2023-04-23T11:14:39.682Z,33.39
2023-04-23T11:17:08.075Z,33.33
2023-04-23T11:19:42.220Z,33.26
2023-04-23T11:22:22.585Z,33.18
2023-04-23T11:24:51.225Z,33.11
2023-04-23T11:27:20.855Z,33.04
2023-04-23T11:29:49.367Z,32.97
2023-04-23T11:32:18.737Z,32.91
2023-04-23T11:34:51.485Z,32.86
2023-04-23T11:37:20.664Z,32.80
2023-04-23T11:39:50.244Z,32.74
2023-04-23T11:42:21.105Z,32.68
2023-04-23T11:44:49.935Z,32.63
2023-04-23T11:47:19.703Z,32.56
2023-04-23T11:49:49.832Z,32.53
2023-04-23T11:52:18.235Z,32.50
2023-04-23T11:54:46.612Z,32.45
2023-04-23T11:57:15.568Z,32.39
2023-04-23T11:59:44.460Z,32.34
2023-04-23T12:02:13.304Z,32.27
2023-04-23T12:04:41.967Z,32.23
2023-04-23T12:07:23.027Z,32.21
2023-04-23T12:09:54.034Z,32.20
2023-04-23T12:12:22.468Z,32.20
2023-04-23T12:14:50.848Z,32.16
2023-04-23T12:17:19.243Z,32.13
2023-04-23T12:19:47.623Z,32.10
2023-04-23T12:22:16.163Z,32.08
2023-04-23T12:24:55.851Z,32.06
2023-04-23T12:27:24.332Z,32.03
2023-04-23T12:30:02.965Z,32.02
2023-04-23T12:32:35.443Z,32.01
2023-04-23T12:35:07.080Z,32.00
2023-04-23T12:37:38.807Z,31.98
2023-04-23T12:40:08.189Z,31.93
2023-04-23T12:42:37.243Z,31.83
2023-04-23T12:45:11.022Z,31.68
2023-04-23T12:47:39.508Z,31.61
2023-04-23T12:50:08.851Z,31.52
2023-04-23T12:52:37.434Z,31.44
2023-04-23T12:55:06.038Z,31.36
2023-04-23T12:57:35.156Z,31.24
2023-04-23T13:00:03.570Z,31.18
2023-04-23T13:02:33.028Z,31.00
2023-04-23T13:05:01.837Z,30.88
2023-04-23T13:07:30.319Z,30.71
2023-04-23T13:10:00.353Z,30.52
2023-04-23T13:12:28.834Z,30.39
2023-04-23T13:14:58.160Z,30.17
2023-04-23T13:17:27.362Z,29.86
2023-04-23T13:19:56.744Z,29.59
2023-04-23T13:22:29.356Z,29.26
2023-04-23T13:25:00.728Z,28.91
2023-04-23T13:27:31.096Z,28.54
2023-04-23T13:29:59.795Z,28.26
2023-04-23T13:32:32.882Z,27.86
2023-04-23T13:35:03.758Z,27.55
2023-04-23T13:37:33.180Z,27.16
2023-04-23T13:40:01.634Z,26.54
2023-04-23T13:42:30.046Z,26.15
2023-04-23T13:44:58.520Z,25.76
2023-04-23T13:47:28.268Z,25.48
2023-04-23T13:49:57.415Z,25.29
2023-04-23T13:52:25.831Z,25.18
2023-04-23T13:54:55.583Z,25.12
2023-04-23T13:57:24.803Z,25.07
2023-04-23T13:59:53.190Z,25.01
2023-04-23T14:02:21.664Z,24.90
2023-04-23T14:04:50.777Z,24.83
2023-04-23T14:07:19.236Z,24.74
2023-04-23T14:09:48.348Z,24.67
2023-04-23T14:12:16.858Z,24.61
2023-04-23T14:14:45.265Z,24.57
2023-04-23T14:17:13.688Z,24.55
2023-04-23T14:19:42.247Z,24.55
2023-04-23T14:22:10.769Z,24.55
2023-04-23T14:24:47.960Z,24.54
2023-04-23T14:27:16.490Z,24.53
2023-04-23T14:29:57.878Z,24.49
2023-04-23T14:32:26.302Z,24.47
2023-04-23T14:34:54.856Z,24.45
2023-04-23T14:37:23.656Z,24.46
2023-04-23T14:39:52.065Z,24.48
2023-04-23T14:42:20.464Z,24.51
2023-04-23T14:44:48.875Z,24.50
2023-04-23T14:47:17.585Z,24.49
2023-04-23T14:49:46.600Z,24.46
2023-04-23T14:52:14.977Z,24.40
2023-04-23T14:54:43.445Z,24.37
2023-04-23T14:57:11.953Z,24.32
2023-04-23T14:59:40.610Z,24.25
2023-04-23T15:02:10.178Z,24.26
2023-04-23T15:04:38.688Z,24.26
2023-04-23T15:07:07.269Z,24.25
2023-04-23T15:09:35.685Z,24.27
2023-04-23T15:12:08.213Z,24.27
2023-04-23T15:14:39.393Z,24.30
2023-04-23T15:17:07.835Z,24.31
2023-04-23T15:19:36.288Z,24.31
2023-04-23T15:22:04.751Z,24.32
2023-04-23T15:24:33.119Z,24.31
2023-04-23T15:27:03.022Z,24.33
2023-04-23T15:29:31.602Z,24.33
2023-04-23T15:32:00.618Z,24.33
2023-04-23T15:34:29.011Z,24.34
2023-04-23T15:36:57.467Z,24.35
2023-04-23T15:39:25.860Z,24.37
2023-04-23T15:41:54.780Z,24.40
2023-04-23T15:44:23.447Z,24.40
2023-04-23T15:46:51.859Z,24.40
2023-04-23T15:49:20.303Z,24.41
2023-04-23T15:51:49.396Z,24.41
2023-04-23T15:54:17.852Z,24.41
2023-04-23T15:56:46.239Z,24.40
2023-04-23T15:59:14.684Z,24.39
2023-04-23T16:01:43.277Z,24.39
2023-04-23T16:04:12.416Z,24.37
2023-04-23T16:06:41.334Z,24.34
2023-04-23T16:09:09.778Z,24.33
2023-04-23T16:11:39.274Z,24.31
2023-04-23T16:14:10.301Z,24.29
2023-04-23T16:16:39.749Z,24.27
2023-04-23T16:19:08.239Z,24.24
2023-04-23T16:21:36.886Z,24.24
2023-04-23T16:24:05.636Z,24.24
2023-04-23T16:26:34.340Z,24.25
2023-04-23T16:29:16.460Z,24.23
2023-04-23T16:31:49.587Z,24.24
2023-04-23T16:34:18.186Z,24.25
2023-04-23T16:36:46.674Z,24.26
2023-04-23T16:39:15.560Z,24.26
2023-04-23T16:41:43.942Z,24.27
2023-04-23T16:44:12.416Z,24.26
2023-04-23T16:49:09.360Z,24.30
2023-04-23T16:51:37.755Z,24.33
2023-04-23T16:54:06.275Z,24.35
2023-04-23T16:56:35.145Z,24.38
2023-04-23T16:59:04.130Z,24.40
2023-04-23T17:01:32.611Z,24.39
2023-04-23T17:04:01.306Z,24.40
2023-04-23T17:06:31.680Z,24.40
2023-04-23T17:09:03.317Z,24.39
2023-04-23T17:11:32.600Z,24.39
2023-04-23T17:14:01.092Z,24.39
2023-04-23T17:16:29.969Z,24.39
2023-04-23T17:18:58.681Z,24.37
2023-04-23T17:21:28.232Z,24.38
2023-04-23T17:23:57.774Z,24.39
2023-04-23T17:26:26.211Z,24.38
2023-04-23T17:28:54.655Z,24.36
2023-04-23T17:31:23.196Z,24.39
2023-04-23T17:33:51.668Z,24.39
2023-04-23T17:36:20.206Z,24.40
2023-04-23T17:38:48.639Z,24.41
2023-04-23T17:41:20.027Z,24.44
2023-04-23T17:43:50.858Z,24.44
2023-04-23T17:46:19.564Z,24.46
2023-04-23T17:48:49.177Z,24.46
2023-04-23T17:51:17.641Z,24.46
2023-04-23T17:53:49.491Z,24.44
2023-04-23T17:56:18.051Z,24.46
2023-04-23T17:58:46.855Z,24.46
2023-04-23T18:01:16.443Z,24.47
2023-04-23T18:03:45.240Z,24.48
2023-04-23T18:06:13.860Z,24.49
2023-04-23T18:08:42.735Z,24.52
2023-04-23T18:11:11.465Z,24.54
2023-04-23T18:13:40.127Z,24.56
2023-04-23T18:16:08.540Z,24.57
2023-04-23T18:18:37.050Z,24.57
2023-04-23T18:21:06.126Z,24.57
2023-04-23T18:23:36.801Z,24.56
2023-04-23T18:26:05.276Z,24.54
2023-04-23T18:28:38.087Z,24.51
2023-04-23T18:31:06.686Z,24.48
2023-04-23T18:33:53.444Z,24.46
2023-04-23T18:36:35.213Z,24.43
2023-04-23T18:39:04.707Z,24.41
2023-04-23T18:41:33.375Z,24.40
2023-04-23T18:44:03.452Z,24.38
2023-04-23T18:46:32.805Z,24.35
2023-04-23T18:49:10.223Z,24.34
2023-04-23T18:51:46.774Z,24.31
2023-04-23T18:54:15.970Z,24.27
2023-04-23T18:56:44.681Z,24.23
2023-04-23T18:59:13.453Z,24.20
2023-04-23T19:01:43.270Z,24.17
2023-04-23T19:04:12.314Z,24.15
2023-04-23T19:06:41.068Z,24.14
2023-04-23T19:09:10.285Z,24.13
2023-04-23T19:11:39.222Z,24.11
2023-04-23T19:14:07.684Z,24.11
2023-04-23T19:16:36.400Z,24.09
2023-04-23T19:19:04.902Z,24.08
2023-04-23T19:21:33.359Z,24.05
2023-04-23T19:24:01.841Z,24.05
2023-04-23T19:26:30.301Z,24.03
2023-04-23T19:28:58.704Z,24.01
2023-04-23T19:31:28.259Z,24.00
2023-04-23T19:33:58.233Z,24.00
2023-04-23T19:36:27.512Z,24.00
2023-04-23T19:38:55.962Z,23.99
2023-04-23T19:41:24.340Z,24.01
2023-04-23T19:43:52.751Z,24.00
2023-04-23T19:46:21.279Z,24.00
2023-04-23T19:48:49.706Z,24.00
2023-04-23T19:51:20.314Z,23.99
2023-04-23T19:53:49.415Z,23.97
2023-04-23T19:56:18.924Z,23.97
2023-04-23T19:58:47.446Z,23.97
2023-04-23T20:01:15.897Z,23.99
2023-04-23T20:03:44.791Z,24.00
2023-04-23T20:06:13.321Z,24.00
2023-04-23T20:09:04.335Z,24.00
2023-04-23T20:11:32.877Z,24.01
2023-04-23T20:14:01.481Z,24.01
2023-04-23T20:16:29.968Z,24.03
2023-04-23T20:18:58.661Z,24.01
2023-04-23T20:21:27.756Z,24.01
2023-04-23T20:23:56.245Z,24.03
2023-04-23T20:26:24.889Z,24.03
2023-04-23T20:28:53.273Z,24.04
2023-04-23T20:31:22.342Z,24.04
2023-04-23T20:33:50.797Z,24.05
2023-04-23T20:36:19.467Z,24.07
2023-04-23T20:38:48.400Z,24.05
2023-04-23T20:41:17.051Z,24.08
2023-04-23T20:43:45.508Z,24.07
2023-04-23T20:46:14.247Z,24.05
2023-04-23T20:48:44.369Z,24.02
2023-04-23T20:51:12.968Z,23.97
2023-04-23T20:53:41.371Z,23.90
2023-04-23T20:56:09.763Z,23.90
2023-04-23T20:58:38.252Z,23.86
2023-04-23T21:01:08.533Z,23.84
2023-04-23T21:03:37.985Z,23.81
2023-04-23T21:06:08.476Z,23.81
2023-04-23T21:08:43.498Z,23.83
2023-04-23T21:11:15.534Z,23.82
2023-04-23T21:13:44.624Z,23.83
2023-04-23T21:16:13.264Z,23.84
2023-04-23T21:18:42.607Z,23.84
2023-04-23T21:21:11.237Z,23.83
2023-04-23T21:23:39.628Z,23.82
2023-04-23T21:26:10.038Z,23.81
2023-04-23T21:28:38.425Z,23.79
2023-04-23T21:31:13.733Z,23.79
2023-04-23T21:33:42.221Z,23.77
2023-04-23T21:36:10.588Z,23.74
2023-04-23T21:38:38.966Z,23.73
2023-04-23T21:41:08.553Z,23.72
2023-04-23T21:43:37.026Z,23.71
2023-04-23T21:46:05.586Z,23.71
2023-04-23T21:48:34.544Z,23.71
2023-04-23T21:51:04.486Z,23.69
2023-04-23T21:53:32.868Z,23.67
2023-04-23T21:56:01.460Z,23.65
2023-04-23T21:58:32.211Z,23.62
2023-04-23T22:01:00.678Z,23.62
2023-04-23T22:03:38.250Z,23.60
2023-04-23T22:06:07.943Z,23.58
2023-04-23T22:08:38.903Z,23.55
2023-04-23T22:11:09.196Z,23.52
2023-04-23T22:13:38.059Z,23.51
2023-04-23T22:16:16.447Z,23.47
2023-04-23T22:18:53.304Z,23.43
2023-04-23T22:21:21.811Z,23.41
2023-04-23T22:23:50.372Z,23.40
2023-04-23T22:26:18.890Z,23.36
2023-04-23T22:28:47.637Z,23.36
2023-04-23T22:31:16.838Z,23.35
2023-04-23T22:33:45.276Z,23.35
2023-04-23T22:36:13.816Z,23.36
2023-04-23T22:38:42.323Z,23.37
2023-04-23T22:41:10.747Z,23.38
2023-04-23T22:43:39.134Z,23.40
2023-04-23T22:46:07.571Z,23.41
2023-04-23T22:48:38.771Z,23.42
2023-04-23T22:51:07.911Z,23.44
2023-04-23T22:53:36.304Z,23.46
2023-04-23T22:56:04.824Z,23.46
2023-04-23T22:58:33.352Z,23.46
2023-04-23T23:01:01.765Z,23.49
2023-04-23T23:03:30.249Z,23.51
2023-04-23T23:05:58.706Z,23.53
2023-04-23T23:08:27.115Z,23.54
2023-04-23T23:10:55.523Z,23.55
2023-04-23T23:13:24.204Z,23.55
2023-04-23T23:15:53.170Z,23.56
2023-04-23T23:18:22.159Z,23.58
2023-04-23T23:20:50.606Z,23.60
2023-04-23T23:23:18.990Z,23.61
2023-04-23T23:25:47.385Z,23.62
2023-04-23T23:28:16.508Z,23.64
2023-04-23T23:30:44.903Z,23.66
2023-04-23T23:33:13.496Z,23.69
2023-04-23T23:35:43.645Z,23.73
2023-04-23T23:38:12.926Z,23.74
2023-04-23T23:40:41.535Z,23.77
2023-04-23T23:43:09.973Z,23.79
2023-04-23T23:45:38.384Z,23.82
2023-04-23T23:48:07.305Z,23.83
2023-04-23T23:50:35.910Z,23.85
2023-04-23T23:53:04.405Z,23.84
2023-04-23T23:55:32.808Z,23.85
2023-04-23T23:58:01.988Z,23.87
